BXI weather

Boundiali Airport
Boundiali, Savanes, Côte d'Ivoire

Public forecast

Using degrees Celsius for public forecast. Weather courtesy of forecast.io.

METAR (pilot weather report)

Report is more than 6 hours old.

Closest report is Korhogo Airport, 54.6 nm (101.2 km) E. Retrieved 2018/09/30 03:00 UTC (5 months ago):

DIKO 300300Z 32004KT 8000 TS BKN013 FEW020CB 22/22 Q1013 NOSIG

TAF (pilot weather forecast)

Forecast is more than 12 hours old.

Retrieved 2009/12/27 10:00 UTC (9 years ago):

TAF DIBI 271000Z 2712/2812 30008KT 6000 FEW015 PROB30 TEMPO 2715/2719 3000 HZ TEMPO 2806/2809 3000 BR